Time;durP1;ratioP1;P1;durP2;ratioP2;P2;SDS_P1;SDS_P2;PMS_P1;PMS_P2;Temp;Humidity;BMP_temperature;BMP_pressure;BME280_temperature;BME280_humidity;BME280_pressure;Samples;Min_cycle;Max_cycle;Signal;HPM_P1;HPM_P2
2023/01/26 00:02:09;;;;;;;20.10;9.68;;;-1.50;99.90;;;;;;4973922;28;20042;-86
2023/01/26 00:04:36;;;;;;;17.25;10.70;;;-1.50;99.90;;;;;;4988915;28;20057;-86
2023/01/26 00:07:04;;;;;;;14.30;8.55;;;-1.50;99.90;;;;;;4992528;28;20039;-86
2023/01/26 00:09:31;;;;;;;17.25;9.35;;;-1.50;99.90;;;;;;4990219;28;20058;-86
2023/01/26 00:11:59;;;;;;;16.33;7.85;;;-1.60;99.90;;;;;;4974605;28;20057;-86
2023/01/26 00:14:26;;;;;;;14.95;9.13;;;-1.60;99.90;;;;;;4967078;28;20045;-86
2023/01/26 00:16:54;;;;;;;15.45;10.02;;;-1.60;99.90;;;;;;4970305;28;20046;-85
2023/01/26 00:19:21;;;;;;;26.90;8.65;;;-1.60;99.90;;;;;;4992563;28;20053;-86
2023/01/26 00:21:49;;;;;;;14.13;5.50;;;-1.60;99.90;;;;;;4989758;28;20038;-86
2023/01/26 00:24:17;;;;;;;15.43;10.48;;;-1.70;99.90;;;;;;4987817;28;20051;-86
2023/01/26 00:26:44;;;;;;;18.20;8.25;;;-1.70;99.90;;;;;;4992101;28;20045;-85
2023/01/26 00:29:12;;;;;;;21.98;9.45;;;-1.60;99.90;;;;;;4991126;28;20050;-86
2023/01/26 00:31:39;;;;;;;14.73;8.65;;;-1.60;99.90;;;;;;4989755;28;20053;-86
2023/01/26 00:34:07;;;;;;;10.68;6.22;;;-1.60;99.90;;;;;;4992037;28;20043;-86
2023/01/26 00:36:36;;;;;;;19.38;7.13;;;-1.70;99.90;;;;;;4969426;28;20043;-86
2023/01/26 00:39:04;;;;;;;17.90;8.88;;;-1.70;99.90;;;;;;4974623;28;20042;-85
2023/01/26 00:44:17;;;;;;;20.42;9.98;;;-1.80;99.90;;;;;;4972731;28;20393;-85
2023/01/26 00:46:45;;;;;;;16.52;9.07;;;-1.80;99.90;;;;;;4959422;28;20058;-85
2023/01/26 00:49:13;;;;;;;19.45;9.02;;;-1.80;99.90;;;;;;4945945;28;20620;-85
2023/01/26 00:51:41;;;;;;;16.50;8.32;;;-1.80;99.90;;;;;;4948466;28;20422;-85
2023/01/26 00:54:08;;;;;;;11.48;5.95;;;-1.80;99.90;;;;;;4942577;28;20054;-86
2023/01/26 00:56:36;;;;;;;13.43;8.23;;;-1.70;99.90;;;;;;4929384;28;20039;-84
2023/01/26 00:59:05;;;;;;;17.60;8.07;;;-1.70;99.90;;;;;;4952894;28;20065;-85
2023/01/26 01:01:32;;;;;;;17.55;7.65;;;-1.70;99.90;;;;;;4958919;28;20051;-86
2023/01/26 01:04:00;;;;;;;10.18;6.03;;;-1.70;99.90;;;;;;4963762;28;20061;-85
2023/01/26 01:06:27;;;;;;;14.52;7.60;;;-1.70;99.90;;;;;;4964600;28;20547;-86
2023/01/26 01:08:55;;;;;;;16.23;9.88;;;-1.60;99.90;;;;;;4941581;28;20054;-85
2023/01/26 01:11:23;;;;;;;14.63;7.95;;;-1.70;99.90;;;;;;4954230;28;20055;-85
2023/01/26 01:13:50;;;;;;;19.88;9.15;;;-1.70;99.90;;;;;;4948502;28;20443;-85
2023/01/26 01:16:19;;;;;;;14.20;8.48;;;-1.70;99.90;;;;;;4961746;28;20058;-86
2023/01/26 01:18:46;;;;;;;13.40;8.10;;;-1.70;99.90;;;;;;4960319;28;20631;-85
2023/01/26 01:21:16;;;;;;;20.75;9.55;;;-1.70;99.90;;;;;;4959591;28;20919;-86
2023/01/26 01:23:43;;;;;;;14.38;8.23;;;-1.70;99.90;;;;;;4941982;28;20070;-80
2023/01/26 01:26:12;;;;;;;11.63;7.25;;;-1.70;99.90;;;;;;4945742;28;20781;-87
2023/01/26 01:28:41;;;;;;;19.30;8.23;;;-1.70;99.90;;;;;;4929170;28;20062;-85
2023/01/26 01:31:12;;;;;;;15.02;6.70;;;-1.60;99.90;;;;;;4960773;28;20464;-85
2023/01/26 01:33:41;;;;;;;15.98;8.40;;;-1.70;99.90;;;;;;4946239;28;20053;-86
2023/01/26 01:36:14;;;;;;;14.50;7.78;;;-1.70;99.90;;;;;;4962437;28;20043;-85
2023/01/26 01:38:44;;;;;;;11.82;6.88;;;-1.70;99.90;;;;;;4963295;28;20043;-86
2023/01/26 01:41:13;;;;;;;15.15;7.50;;;-1.70;99.90;;;;;;4959121;28;20436;-85
2023/01/26 01:43:41;;;;;;;13.68;8.85;;;-1.80;99.90;;;;;;4944573;28;20074;-86
2023/01/26 01:46:32;;;;;;;18.48;7.40;;;-1.80;99.90;;;;;;4951280;28;20396;-86
2023/01/26 01:49:13;;;;;;;14.88;9.15;;;-1.80;99.90;;;;;;4948994;28;20799;-85
2023/01/26 01:51:44;;;;;;;11.77;5.95;;;-1.80;99.90;;;;;;4962980;28;20062;-85
2023/01/26 01:54:16;;;;;;;9.45;6.80;;;-1.70;99.90;;;;;;4960008;28;20049;-86
2023/01/26 01:56:49;;;;;;;11.10;6.85;;;-1.70;99.90;;;;;;4942954;28;20062;-85
2023/01/26 01:59:20;;;;;;;13.50;8.57;;;-1.70;99.90;;;;;;4931195;28;20058;-86
2023/01/26 02:01:50;;;;;;;14.13;7.50;;;-1.70;99.90;;;;;;4962001;28;20058;-86
2023/01/26 02:04:20;;;;;;;11.05;6.53;;;-1.70;99.90;;;;;;4942298;28;20043;-86
2023/01/26 02:06:55;;;;;;;17.40;7.93;;;-1.60;99.90;;;;;;4937780;29;20080;-86
2023/01/26 02:12:27;;;;;;;10.70;7.13;;;-1.60;99.90;;;;;;4959434;28;20047;-86
2023/01/26 02:14:59;;;;;;;14.43;8.07;;;-1.60;99.90;;;;;;4951532;28;20081;-86
2023/01/26 02:17:27;;;;;;;17.88;7.20;;;-1.60;99.90;;;;;;4952041;28;20527;-85
2023/01/26 02:20:06;;;;;;;15.00;8.52;;;-1.60;99.90;;;;;;4942357;28;20416;-86
2023/01/26 02:22:47;;;;;;;13.43;6.85;;;-1.70;99.90;;;;;;4945638;28;20048;-86
2023/01/26 02:25:43;;;;;;;14.45;9.38;;;-1.70;99.90;;;;;;4948861;28;20042;-85
2023/01/26 02:28:13;;;;;;;12.38;7.05;;;-1.70;99.90;;;;;;4925531;28;20054;-86
2023/01/26 02:30:41;;;;;;;10.73;7.63;;;-1.60;99.90;;;;;;4968319;28;20043;-85
2023/01/26 02:33:16;;;;;;;12.13;7.55;;;-1.70;99.90;;;;;;4960112;28;20050;-85
2023/01/26 02:35:44;;;;;;;15.20;9.05;;;-1.70;99.90;;;;;;4946997;28;20416;-86
2023/01/26 02:38:12;;;;;;;13.45;8.30;;;-1.70;99.90;;;;;;4963663;28;20066;-86
2023/01/26 02:40:54;;;;;;;13.27;7.97;;;-1.70;99.90;;;;;;4935190;28;20356;-85
2023/01/26 02:43:24;;;;;;;11.38;8.02;;;-1.70;99.90;;;;;;4950231;28;20061;-85
2023/01/26 02:45:55;;;;;;;12.70;6.63;;;-1.70;99.90;;;;;;4954359;28;20065;-85
2023/01/26 02:51:13;;;;;;;12.23;7.15;;;-1.70;99.90;;;;;;4945860;28;20047;-86
2023/01/26 02:53:40;;;;;;;14.30;6.75;;;-1.70;99.90;;;;;;4944396;29;20055;-85
2023/01/26 02:56:09;;;;;;;14.57;7.47;;;-1.70;99.90;;;;;;4944791;29;20043;-85
2023/01/26 02:58:36;;;;;;;17.52;9.00;;;-1.60;99.90;;;;;;4947787;28;20051;-84
2023/01/26 03:01:07;;;;;;;10.25;6.32;;;-1.70;99.90;;;;;;4965680;28;20050;-86
2023/01/26 03:03:45;;;;;;;;;;;-1.70;99.90;;;;;;4965843;28;20420;-85
2023/01/26 03:06:14;;;;;;;12.10;7.10;;;-1.60;99.90;;;;;;4966933;28;19945;-86
2023/01/26 03:08:43;;;;;;;9.30;6.22;;;-1.60;99.90;;;;;;4965435;28;20051;-87
2023/01/26 03:11:11;;;;;;;14.10;5.75;;;-1.70;99.90;;;;;;4945480;29;20078;-86
2023/01/26 03:13:40;;;;;;;14.82;8.25;;;-1.70;99.90;;;;;;4934938;28;20046;-86
2023/01/26 03:16:09;;;;;;;9.57;6.60;;;-1.70;99.90;;;;;;4931162;28;20413;-74
2023/01/26 03:29:47;;;;;;;14.93;8.82;;;-1.70;99.90;;;;;;4961930;28;20058;-73
2023/01/26 03:32:15;;;;;;;12.20;7.03;;;-1.70;99.90;;;;;;4948673;28;20393;-74
2023/01/26 03:34:42;;;;;;;20.58;8.57;;;-1.70;99.90;;;;;;4962652;28;20483;-73
2023/01/26 03:37:10;;;;;;;9.10;6.03;;;-1.70;99.90;;;;;;4963137;28;20423;-73
2023/01/26 03:57:02;;;;;;;12.02;7.43;;;-1.80;99.90;;;;;;4947116;28;20057;-73
2023/01/26 03:59:41;;;;;;;10.02;5.38;;;-1.70;99.90;;;;;;4943791;28;20047;-74
2023/01/26 04:10:39;;;;;;;8.85;5.95;;;-1.50;99.90;;;;;;4961835;28;20058;-86
2023/01/26 04:21:33;;;;;;;9.77;6.80;;;-1.50;99.90;;;;;;4959383;28;20047;-86
2023/01/26 04:24:12;;;;;;;13.43;7.60;;;-1.60;99.90;;;;;;4946206;29;20058;-86
2023/01/26 04:26:46;;;;;;;12.32;7.38;;;-1.50;99.90;;;;;;4944744;28;20055;-85
2023/01/26 04:29:22;;;;;;;13.45;6.13;;;-1.60;99.90;;;;;;4947065;28;20073;-86
2023/01/26 04:31:50;;;;;;;13.20;9.10;;;-1.50;99.90;;;;;;4943813;29;20051;-86
2023/01/26 04:34:20;;;;;;;14.90;7.30;;;-1.60;99.90;;;;;;4946821;28;20055;-86
2023/01/26 04:36:49;;;;;;;11.02;7.20;;;-1.60;99.90;;;;;;4947909;28;20047;-86
2023/01/26 04:39:21;;;;;;;7.18;5.70;;;-1.70;99.90;;;;;;4946197;28;20073;-86
2023/01/26 04:41:53;;;;;;;14.38;7.65;;;-1.60;99.90;;;;;;4948981;28;20061;-86
2023/01/26 04:44:21;;;;;;;11.40;6.97;;;-1.70;99.90;;;;;;4948715;28;20057;-87
2023/01/26 04:46:49;;;;;;;14.35;7.80;;;-1.70;99.90;;;;;;4947037;28;20062;-87
2023/01/26 04:49:21;;;;;;;14.07;6.60;;;-1.80;99.90;;;;;;4947845;28;20523;-84
2023/01/26 04:51:49;;;;;;;11.07;6.43;;;-1.80;99.90;;;;;;4925604;28;20055;-86
2023/01/26 04:54:16;;;;;;;13.70;8.90;;;-1.90;99.90;;;;;;4964167;28;20047;-86
2023/01/26 04:56:44;;;;;;;8.90;7.03;;;-1.90;99.90;;;;;;4946593;28;20058;-86
2023/01/26 04:59:12;;;;;;;11.10;6.60;;;-1.90;99.90;;;;;;4944507;28;20058;-87
2023/01/26 05:01:41;;;;;;;11.43;5.85;;;-1.90;99.90;;;;;;4948299;28;20082;-86
2023/01/26 05:04:11;;;;;;;12.55;7.55;;;-1.90;99.90;;;;;;4942452;28;20049;-86
2023/01/26 05:06:43;;;;;;;12.35;8.68;;;-2.00;99.90;;;;;;4963196;28;20051;-86
2023/01/26 05:09:11;;;;;;;10.95;7.07;;;-2.00;99.90;;;;;;4959451;28;20427;-87
2023/01/26 05:11:40;;;;;;;11.52;6.95;;;-1.90;99.90;;;;;;4947728;28;20054;-86
2023/01/26 05:14:08;;;;;;;10.82;6.32;;;-2.00;99.90;;;;;;4961907;28;20047;-85
2023/01/26 05:16:54;;;;;;;9.88;6.57;;;-1.90;99.90;;;;;;4963768;28;20047;-87
2023/01/26 05:19:45;;;;;;;12.00;7.53;;;-1.90;99.90;;;;;;4930270;28;20051;-86
2023/01/26 05:22:16;;;;;;;12.90;6.57;;;-1.90;99.90;;;;;;4950462;28;20042;-87
2023/01/26 05:25:10;;;;;;;15.82;9.60;;;-1.90;99.90;;;;;;4963509;28;20077;-87
2023/01/26 05:27:51;;;;;;;11.25;8.98;;;-1.90;99.90;;;;;;4960387;28;20070;-86
2023/01/26 05:30:19;;;;;;;10.85;6.28;;;-1.90;99.90;;;;;;4963322;28;20062;-87
2023/01/26 05:32:49;;;;;;;10.10;5.95;;;-1.90;99.90;;;;;;4947773;28;20398;-87
2023/01/26 05:35:17;;;;;;;13.48;6.03;;;-2.00;99.90;;;;;;4965889;28;20038;-87
2023/01/26 05:37:45;;;;;;;14.32;8.05;;;-2.00;99.90;;;;;;4942689;28;20380;-86
2023/01/26 05:40:14;;;;;;;12.38;7.68;;;-2.00;99.90;;;;;;4945425;28;20051;-87
2023/01/26 05:42:42;;;;;;;9.60;6.95;;;-2.00;99.90;;;;;;4942719;29;20047;-87
2023/01/26 05:45:23;;;;;;;10.02;5.32;;;-2.00;99.90;;;;;;4945891;28;20419;-88
2023/01/26 05:47:54;;;;;;;15.00;7.90;;;-2.00;99.90;;;;;;4963562;28;20046;-86
2023/01/26 05:50:22;;;;;;;10.93;6.80;;;-2.00;99.90;;;;;;4943994;28;20431;-87
2023/01/26 05:53:14;;;;;;;11.30;6.70;;;-2.00;99.90;;;;;;4959023;28;20051;-86
2023/01/26 05:55:42;;;;;;;10.95;8.07;;;-1.90;99.90;;;;;;4942440;29;20063;-87
2023/01/26 05:58:10;;;;;;;18.63;7.70;;;-1.90;99.90;;;;;;4942959;29;20051;-87
2023/01/26 06:00:38;;;;;;;8.52;6.32;;;-1.90;99.90;;;;;;4932207;29;20043;-87
2023/01/26 06:03:11;;;;;;;9.55;5.55;;;-1.80;99.90;;;;;;4952892;29;20070;-87
2023/01/26 06:05:39;;;;;;;9.20;6.43;;;-1.80;99.90;;;;;;4952584;28;20059;-87
2023/01/26 06:08:14;;;;;;;14.27;6.68;;;-1.80;99.90;;;;;;4925421;29;20047;-87
2023/01/26 06:11:11;;;;;;;10.07;6.50;;;-1.80;99.90;;;;;;4934389;29;20070;-88
2023/01/26 06:13:49;;;;;;;10.93;7.65;;;-1.80;99.90;;;;;;4947994;28;20048;-88
2023/01/26 06:16:23;;;;;;;8.70;6.57;;;-1.80;99.90;;;;;;4939475;29;20043;-87
2023/01/26 06:18:51;;;;;;;7.70;6.57;;;-1.80;99.90;;;;;;4939628;29;20044;-87
2023/01/26 06:25:47;;;;;;;9.15;7.60;;;-1.80;99.90;;;;;;4957234;28;20032;-87
2023/01/26 06:28:15;;;;;;;10.50;4.72;;;-1.70;99.90;;;;;;4954728;28;20388;-88
2023/01/26 06:30:43;;;;;;;13.50;6.35;;;-1.70;99.90;;;;;;4950315;29;20051;-87
2023/01/26 06:33:12;;;;;;;8.35;4.72;;;-1.80;99.90;;;;;;4957207;29;20035;-86
2023/01/26 06:35:40;;;;;;;12.82;7.57;;;-1.70;99.90;;;;;;4958701;29;20403;-88
2023/01/26 06:38:11;;;;;;;10.77;6.32;;;-1.70;99.90;;;;;;4957714;29;20040;-87
2023/01/26 06:40:38;;;;;;;11.50;5.68;;;-1.80;99.90;;;;;;4942017;29;20040;-87
2023/01/26 06:43:06;;;;;;;10.32;6.93;;;-1.80;99.90;;;;;;4955196;29;20051;-86
2023/01/26 06:45:34;;;;;;;10.82;5.18;;;-1.80;99.90;;;;;;4943525;29;20059;-88
2023/01/26 06:48:02;;;;;;;18.38;8.55;;;-1.80;99.90;;;;;;4950162;28;20428;-89
2023/01/26 06:50:35;;;;;;;9.40;5.63;;;-1.80;99.90;;;;;;4950331;29;20071;-88
2023/01/26 06:54:17;;;;;;;8.13;5.22;;;-1.80;99.90;;;;;;4938318;29;20055;-88
2023/01/26 06:57:03;;;;;;;11.88;7.90;;;-1.80;99.90;;;;;;4938071;29;20048;-88
2023/01/26 06:59:49;;;;;;;10.32;5.53;;;-1.70;99.90;;;;;;4922215;28;20051;-88
2023/01/26 07:02:55;;;;;;;7.45;5.22;;;-1.80;99.90;;;;;;4931985;29;20409;-87
2023/01/26 07:05:27;;;;;;;13.60;5.93;;;-1.80;99.90;;;;;;4946184;28;20044;-87
2023/01/26 07:07:54;;;;;;;6.85;4.65;;;-1.90;99.90;;;;;;4956019;28;20140;-87
2023/01/26 07:10:22;;;;;;;13.65;9.27;;;-2.00;99.90;;;;;;4977136;28;20035;-87
2023/01/26 07:12:50;;;;;;;11.35;6.45;;;-2.00;99.90;;;;;;4966795;28;20038;-88
2023/01/26 07:15:18;;;;;;;8.75;5.82;;;-2.00;99.90;;;;;;4973598;28;20058;-88
2023/01/26 07:17:45;;;;;;;8.85;6.57;;;-2.00;99.90;;;;;;4967764;28;20053;-89
2023/01/26 07:20:13;;;;;;;11.32;5.53;;;-2.00;99.90;;;;;;4972826;28;20039;-86
2023/01/26 07:22:41;;;;;;;10.07;5.60;;;-2.00;99.90;;;;;;4972555;28;20085;-85
2023/01/26 07:25:08;;;;;;;6.78;5.93;;;-2.00;99.90;;;;;;4969818;28;20039;-85
2023/01/26 07:27:36;;;;;;;9.25;5.95;;;-1.90;99.90;;;;;;4962841;28;20035;-86
2023/01/26 07:30:04;;;;;;;9.40;6.03;;;-1.90;99.90;;;;;;4973134;28;20043;-86
2023/01/26 07:32:32;;;;;;;13.60;7.30;;;-1.90;99.90;;;;;;4971960;28;20031;-87
2023/01/26 07:35:00;;;;;;;9.75;6.35;;;-1.80;99.90;;;;;;4970582;28;20046;-87
2023/01/26 07:37:30;;;;;;;10.75;7.15;;;-1.80;99.90;;;;;;4955442;28;20214;-86
2023/01/26 07:39:58;;;;;;;7.33;5.57;;;-1.70;99.90;;;;;;4971847;28;20043;-86
2023/01/26 07:42:26;;;;;;;12.05;8.48;;;-1.70;99.90;;;;;;4955130;28;20042;-86
2023/01/26 07:45:03;;;;;;;11.50;6.40;;;-1.70;99.90;;;;;;4950214;28;20062;-85
2023/01/26 07:47:31;;;;;;;13.98;5.95;;;-1.70;99.90;;;;;;4969063;28;20073;-87
2023/01/26 07:49:59;;;;;;;12.07;6.90;;;-1.60;99.90;;;;;;4962126;28;20055;-87
2023/01/26 07:52:26;;;;;;;10.35;5.57;;;-1.60;99.90;;;;;;4967376;28;20104;-86
2023/01/26 07:54:54;;;;;;;12.88;6.82;;;-1.50;99.90;;;;;;4966010;28;20035;-86
2023/01/26 07:57:22;;;;;;;8.00;6.18;;;-1.60;99.90;;;;;;4991074;28;20049;-86
2023/01/26 07:59:51;;;;;;;8.05;6.22;;;-1.60;99.90;;;;;;4989751;28;20047;-86
2023/01/26 08:02:19;;;;;;;10.18;5.90;;;-1.60;99.90;;;;;;4949360;28;20047;-85
2023/01/26 08:04:47;;;;;;;11.10;7.85;;;-1.50;99.90;;;;;;4966441;28;20375;-86
2023/01/26 08:07:15;;;;;;;11.68;7.82;;;-1.50;99.90;;;;;;4964730;28;20039;-86
2023/01/26 08:09:43;;;;;;;11.57;6.35;;;-1.60;99.90;;;;;;4947551;28;20039;-86
2023/01/26 08:12:10;;;;;;;6.30;5.22;;;-1.60;99.90;;;;;;4950432;28;20046;-86
2023/01/26 08:14:38;;;;;;;9.70;4.40;;;-1.60;99.90;;;;;;4937195;28;20062;-86
2023/01/26 08:17:16;;;;;;;15.27;8.60;;;-1.70;99.90;;;;;;4965088;28;20043;-86
2023/01/26 08:19:45;;;;;;;12.15;4.90;;;-1.70;99.90;;;;;;4950135;28;20049;-86
2023/01/26 08:22:44;;;;;;;7.32;5.63;;;-1.70;99.90;;;;;;4948939;28;20047;-86
2023/01/26 08:25:12;;;;;;;7.93;5.43;;;-1.80;99.90;;;;;;4965784;28;20650;-86
2023/01/26 08:27:39;;;;;;;7.00;4.30;;;-1.80;99.90;;;;;;4967255;28;20405;-85
2023/01/26 08:30:07;;;;;;;6.90;4.82;;;-1.80;99.90;;;;;;4967355;28;20571;-85
2023/01/26 08:32:35;;;;;;;8.18;5.35;;;-1.70;99.90;;;;;;4965750;28;20507;-86
2023/01/26 08:35:03;;;;;;;6.80;4.30;;;-1.70;99.90;;;;;;4970574;28;20515;-87
2023/01/26 08:37:32;;;;;;;5.78;4.38;;;-1.60;99.90;;;;;;4933875;28;20054;-87
2023/01/26 08:40:00;;;;;;;11.68;6.03;;;-1.60;99.90;;;;;;4964008;28;20050;-86
2023/01/26 08:42:28;;;;;;;13.73;6.40;;;-1.50;99.90;;;;;;4966965;28;20051;-87
2023/01/26 08:44:55;;;;;;;7.38;4.90;;;-1.50;99.90;;;;;;4970380;28;20042;-86
2023/01/26 08:47:23;;;;;;;7.75;5.60;;;-1.50;99.90;;;;;;4968008;28;20051;-86
2023/01/26 08:49:51;;;;;;;11.10;6.65;;;-1.40;99.90;;;;;;4967507;28;20039;-86
2023/01/26 08:52:20;;;;;;;6.18;4.47;;;-1.50;99.90;;;;;;4968157;28;20046;-86
2023/01/26 08:54:47;;;;;;;7.28;5.70;;;-1.50;99.90;;;;;;4943723;28;20059;-87
2023/01/26 08:57:15;;;;;;;5.88;5.22;;;-1.50;99.90;;;;;;4969597;28;20058;-87
2023/01/26 08:59:43;;;;;;;7.55;5.03;;;-1.50;99.90;;;;;;4951016;28;20500;-86
2023/01/26 09:02:10;;;;;;;3.88;3.50;;;-1.50;99.90;;;;;;4951163;28;20043;-86
2023/01/26 09:04:38;;;;;;;6.28;4.13;;;-1.40;99.90;;;;;;4949482;28;20653;-86
2023/01/26 09:07:08;;;;;;;5.20;4.70;;;-1.40;99.90;;;;;;4969173;28;20381;-87
2023/01/26 09:09:37;;;;;;;8.40;4.57;;;-1.30;99.90;;;;;;4964454;28;20047;-86
2023/01/26 09:12:05;;;;;;;5.90;4.90;;;-1.20;99.90;;;;;;4969036;28;20046;-87
2023/01/26 09:14:32;;;;;;;7.72;3.88;;;-1.20;99.90;;;;;;4968935;28;20411;-87
2023/01/26 09:17:00;;;;;;;4.72;3.70;;;-1.20;99.90;;;;;;4968542;28;20059;-88
2023/01/26 09:19:27;;;;;;;4.63;4.22;;;-1.20;99.90;;;;;;4946111;28;20096;-86
2023/01/26 09:21:57;;;;;;;7.28;5.65;;;-1.10;99.90;;;;;;4963243;28;20062;-86
2023/01/26 09:24:25;;;;;;;9.18;6.18;;;-1.10;99.90;;;;;;4950888;28;20411;-88
2023/01/26 09:26:53;;;;;;;7.20;5.30;;;-1.00;99.90;;;;;;4967000;28;20046;-88
2023/01/26 09:29:20;;;;;;;5.47;4.82;;;-1.00;99.90;;;;;;4945350;28;20049;-87
2023/01/26 09:31:48;;;;;;;6.60;4.43;;;-1.10;99.90;;;;;;4946856;28;20054;-89
2023/01/26 09:34:16;;;;;;;7.28;4.68;;;-1.20;99.90;;;;;;4968743;28;20055;-87
2023/01/26 09:36:43;;;;;;;6.53;4.20;;;-1.30;99.90;;;;;;4967285;28;20051;-90
2023/01/26 09:39:11;;;;;;;6.20;5.22;;;-1.40;99.90;;;;;;4966159;28;20046;-87
2023/01/26 09:42:26;;;;;;;5.72;3.90;;;-1.50;99.90;;;;;;4963937;28;20047;-88
2023/01/26 09:45:11;;;;;;;9.05;4.20;;;-1.60;99.90;;;;;;4920958;28;20057;-87
2023/01/26 09:47:45;;;;;;;5.15;4.63;;;-1.50;99.90;;;;;;4965250;28;20066;-86
2023/01/26 09:50:45;;;;;;;5.80;3.55;;;-1.60;99.90;;;;;;4951080;28;20047;-88
2023/01/26 09:53:15;;;;;;;7.45;3.90;;;-1.60;99.90;;;;;;4932711;28;20039;-87
2023/01/26 09:55:45;;;;;;;9.82;6.15;;;-1.50;99.90;;;;;;4966608;28;20047;-87
2023/01/26 09:58:18;;;;;;;7.65;6.28;;;-1.40;99.90;;;;;;4952154;28;20081;-87
2023/01/26 10:00:49;;;;;;;5.75;4.95;;;-1.40;99.90;;;;;;4949571;28;20058;-88
2023/01/26 10:03:30;;;;;;;14.90;5.37;;;-1.40;99.90;;;;;;4964130;28;20043;-87
2023/01/26 10:06:10;;;;;;;5.38;4.10;;;-1.40;99.90;;;;;;4949292;28;20047;-88
2023/01/26 10:09:22;;;;;;;7.28;4.43;;;-1.30;99.90;;;;;;4964279;28;20042;-88
2023/01/26 10:11:53;;;;;;;6.00;4.70;;;-1.30;99.90;;;;;;4946594;28;20066;-87
2023/01/26 10:14:39;;;;;;;4.88;3.78;;;-1.40;99.90;;;;;;4956700;28;20058;-89
2023/01/26 10:17:39;;;;;;;5.22;4.15;;;-1.40;99.90;;;;;;4949658;28;20043;-87
2023/01/26 10:20:26;;;;;;;4.55;4.15;;;-1.40;99.90;;;;;;4966452;28;20046;-86
2023/01/26 10:23:00;;;;;;;5.10;4.45;;;-1.40;99.90;;;;;;4961979;28;20061;-88
2023/01/26 10:25:37;;;;;;;6.32;4.00;;;-1.40;99.90;;;;;;4959822;28;20138;-87
2023/01/26 10:28:13;;;;;;;7.70;3.00;;;-1.50;99.90;;;;;;4962137;28;20055;-87
2023/01/26 10:30:43;;;;;;;8.73;6.80;;;-1.40;99.90;;;;;;4948406;28;20066;-87
2023/01/26 10:33:19;;;;;;;6.68;4.90;;;-1.50;99.90;;;;;;4959616;28;20058;-87
2023/01/26 10:35:47;;;;;;;5.40;4.75;;;-1.60;99.90;;;;;;4965063;28;20055;-87
2023/01/26 10:38:42;;;;;;;4.57;3.58;;;-1.60;99.90;;;;;;4947883;28;20234;-87
2023/01/26 10:41:15;;;;;;;6.03;4.80;;;-1.50;99.90;;;;;;4943572;28;20061;-87
2023/01/26 10:44:03;;;;;;;4.72;3.38;;;-1.50;99.90;;;;;;4945106;28;20054;-87
2023/01/26 10:46:35;;;;;;;3.95;3.10;;;-1.50;99.90;;;;;;4962940;28;20050;-88
2023/01/26 10:49:14;;;;;;;5.05;4.10;;;-1.50;99.90;;;;;;4967099;28;20051;-88
2023/01/26 10:51:45;;;;;;;5.70;4.10;;;-1.50;99.90;;;;;;4948772;28;20506;-88
2023/01/26 10:54:21;;;;;;;3.92;3.63;;;-1.50;99.90;;;;;;4965310;28;20050;-88
2023/01/26 10:56:58;;;;;;;4.40;3.83;;;-1.50;99.90;;;;;;4962063;28;20395;-88
2023/01/26 10:59:27;;;;;;;4.82;4.15;;;-1.60;99.90;;;;;;4965824;28;20050;-87
2023/01/26 11:02:16;;;;;;;5.18;4.50;;;-1.60;99.90;;;;;;4965661;28;20058;-88
2023/01/26 11:05:02;;;;;;;5.30;3.67;;;-1.60;99.90;;;;;;4962207;28;20046;-87
2023/01/26 11:07:45;;;;;;;7.03;5.45;;;-1.60;99.90;;;;;;4966694;28;20799;-86
2023/01/26 11:10:25;;;;;;;5.55;3.58;;;-1.60;99.90;;;;;;4948473;28;20050;-87
2023/01/26 11:13:17;;;;;;;4.18;3.63;;;-1.60;99.90;;;;;;4962107;28;20054;-88
2023/01/26 11:16:24;;;;;;;5.35;4.32;;;-1.60;99.90;;;;;;4965519;28;20065;-84
2023/01/26 11:19:34;;;;;;;5.63;4.95;;;-1.60;99.90;;;;;;4893295;29;20052;-88
2023/01/26 11:22:17;;;;;;;4.63;2.97;;;-1.60;99.90;;;;;;4893204;29;20850;-88
2023/01/26 11:25:01;;;;;;;5.50;4.13;;;-1.50;99.90;;;;;;4965847;28;20784;-89
2023/01/26 11:27:50;;;;;;;4.90;3.72;;;-1.50;99.90;;;;;;4951620;28;20054;-89
2023/01/26 11:30:43;;;;;;;4.80;3.72;;;-1.40;99.90;;;;;;4969428;28;20054;-89
2023/01/26 11:33:45;;;;;;;5.15;4.65;;;-1.30;99.90;;;;;;4966957;28;20055;-89
2023/01/26 11:36:55;;;;;;;6.70;5.30;;;-1.40;99.90;;;;;;4967414;28;20051;-88
2023/01/26 11:40:00;;;;;;;6.97;5.05;;;-1.40;99.90;;;;;;4938514;28;20506;-90
2023/01/26 11:42:44;;;;;;;5.50;4.75;;;-1.40;99.90;;;;;;4947683;28;20058;-88
2023/01/26 11:45:24;;;;;;;6.80;4.82;;;-1.50;99.90;;;;;;4957169;28;20058;-89
2023/01/26 11:48:24;;;;;;;6.63;5.05;;;-1.40;99.90;;;;;;4957615;28;20053;-86
2023/01/26 11:51:00;;;;;;;7.35;5.72;;;-1.40;99.90;;;;;;4962907;28;20416;-88
2023/01/26 11:53:55;;;;;;;7.75;4.22;;;-1.40;99.90;;;;;;4964996;28;20576;-87
2023/01/26 11:57:03;;;;;;;7.88;5.05;;;-1.60;99.90;;;;;;4939801;28;20538;-87
2023/01/26 11:59:37;;;;;;;7.07;4.72;;;-1.60;99.90;;;;;;4974030;28;20065;-88
2023/01/26 12:02:08;;;;;;;11.52;7.68;;;-1.70;99.90;;;;;;4967167;28;20053;-88
2023/01/26 12:04:44;;;;;;;6.83;5.87;;;-1.70;99.90;;;;;;4968295;28;20054;-87
2023/01/26 12:07:14;;;;;;;6.45;4.55;;;-1.70;99.90;;;;;;4944822;28;20065;-87
2023/01/26 12:09:51;;;;;;;14.02;6.65;;;-1.70;99.90;;;;;;4948999;28;20050;-88
2023/01/26 12:12:19;;;;;;;9.38;6.40;;;-1.60;99.90;;;;;;4964729;28;20051;-88
2023/01/26 12:15:01;;;;;;;13.32;5.80;;;-1.70;99.90;;;;;;4960905;28;20078;-89
2023/01/26 12:17:46;;;;;;;9.20;4.80;;;-1.70;99.90;;;;;;4944600;28;20049;-87
2023/01/26 12:20:40;;;;;;;11.32;8.07;;;-1.70;99.90;;;;;;4970204;28;20054;-88
2023/01/26 12:23:08;;;;;;;10.80;7.53;;;-1.70;99.90;;;;;;4965460;28;20050;-89
2023/01/26 12:25:36;;;;;;;8.35;6.30;;;-1.70;99.90;;;;;;4957847;28;20046;-87
2023/01/26 12:28:11;;;;;;;12.25;8.43;;;-1.70;99.90;;;;;;4951922;28;20061;-88
2023/01/26 12:30:58;;;;;;;18.85;10.20;;;-1.70;99.90;;;;;;4966711;28;20047;-88
2023/01/26 12:33:26;;;;;;;7.60;5.57;;;-1.80;99.90;;;;;;4963777;28;20050;-88
2023/01/26 12:36:31;;;;;;;15.43;8.57;;;-1.80;99.90;;;;;;4948650;28;20419;-88
2023/01/26 12:39:02;;;;;;;9.63;7.10;;;-1.80;99.90;;;;;;4957179;28;20046;-88
2023/01/26 12:41:45;;;;;;;9.38;8.02;;;-1.80;99.90;;;;;;4946292;28;20057;-87
2023/01/26 12:44:24;;;;;;;11.32;6.22;;;-1.80;99.90;;;;;;4953643;28;20047;-88
2023/01/26 12:47:04;;;;;;;17.20;8.30;;;-1.90;99.90;;;;;;4962710;28;20053;-87
2023/01/26 12:49:39;;;;;;;18.42;9.57;;;-1.90;99.90;;;;;;4941896;28;20073;-87
2023/01/26 12:52:14;;;;;;;9.80;5.70;;;-1.90;99.90;;;;;;4945672;28;20054;-86
2023/01/26 12:55:10;;;;;;;13.77;7.28;;;-1.90;99.90;;;;;;4962203;28;20084;-88
2023/01/26 12:57:45;;;;;;;13.70;6.40;;;-1.90;99.90;;;;;;4961769;28;20050;-88
2023/01/26 13:00:23;;;;;;;11.98;5.95;;;-1.90;99.90;;;;;;4967357;28;20046;-87
2023/01/26 13:02:59;;;;;;;12.15;8.32;;;-1.90;99.90;;;;;;4946705;28;20058;-90
2023/01/26 13:05:33;;;;;;;13.00;6.47;;;-1.80;99.90;;;;;;4961244;28;20053;-87
2023/01/26 13:08:38;;;;;;;13.18;8.40;;;-1.80;99.90;;;;;;4967054;28;20058;-89
2023/01/26 13:11:08;;;;;;;18.48;10.13;;;-1.80;99.90;;;;;;4934026;28;20047;-87
2023/01/26 13:13:56;;;;;;;21.95;10.32;;;-1.80;99.90;;;;;;4979043;28;20055;-90
2023/01/26 13:16:32;;;;;;;14.80;7.78;;;-1.90;99.90;;;;;;4979301;28;20038;-86
2023/01/26 13:19:01;;;;;;;16.90;8.35;;;-1.90;99.90;;;;;;4982703;28;20065;-87
2023/01/26 13:22:34;;;;;;;18.48;7.53;;;-1.90;99.90;;;;;;4974548;28;20043;-88
2023/01/26 13:25:32;;;;;;;12.98;5.75;;;-1.80;99.90;;;;;;4958862;28;20059;-88
2023/01/26 13:28:02;;;;;;;15.98;9.90;;;-1.80;99.90;;;;;;4955551;29;20044;-86
2023/01/26 13:30:30;;;;;;;8.88;5.55;;;-1.80;99.90;;;;;;4955920;29;20054;-86
2023/01/26 13:33:22;;;;;;;12.70;7.90;;;-1.80;99.90;;;;;;4956171;28;20043;-87
2023/01/26 13:35:54;;;;;;;7.45;5.35;;;-1.70;99.90;;;;;;4938900;28;20051;-91
2023/01/26 13:38:46;;;;;;;11.23;6.03;;;-1.60;99.90;;;;;;4976996;28;20058;-88
2023/01/26 13:41:19;;;;;;;;;;;-1.40;99.90;;;;;;4956998;28;20050;-86
2023/01/26 13:44:13;;;;;;;11.18;6.45;;;-1.40;99.90;;;;;;4974153;28;19930;-88
2023/01/26 13:46:51;;;;;;;13.27;6.05;;;-1.50;99.90;;;;;;4965668;28;20396;-88
2023/01/26 13:49:35;;;;;;;13.15;7.97;;;-1.50;99.90;;;;;;4972627;28;20050;-89
2023/01/26 13:52:15;;;;;;;16.00;6.57;;;-1.40;99.90;;;;;;4956405;28;20403;-88
2023/01/26 13:54:44;;;;;;;12.13;7.32;;;-1.50;99.90;;;;;;4962519;28;20065;-89
2023/01/26 13:57:20;;;;;;;12.90;6.85;;;-1.60;99.90;;;;;;4950440;28;20036;-88
2023/01/26 13:59:50;;;;;;;14.07;8.13;;;-1.60;99.90;;;;;;4956386;28;20051;-88
2023/01/26 14:02:26;;;;;;;14.23;7.85;;;-1.50;99.90;;;;;;4952365;28;20047;-88
2023/01/26 14:04:56;;;;;;;7.68;5.10;;;-1.60;99.90;;;;;;4949473;28;20055;-88
2023/01/26 14:07:26;;;;;;;13.38;7.38;;;-1.70;99.90;;;;;;4952415;28;20045;-88
2023/01/26 14:09:57;;;;;;;12.07;6.97;;;-1.60;99.90;;;;;;4944553;28;20047;-88
2023/01/26 14:12:50;;;;;;;13.80;7.45;;;-1.60;99.90;;;;;;4951084;28;20047;-88
2023/01/26 14:15:27;;;;;;;19.92;7.03;;;-1.60;99.90;;;;;;4950203;28;20051;-89
2023/01/26 14:17:58;;;;;;;14.88;9.38;;;-1.50;99.90;;;;;;4950697;28;20059;-87